sensor_id;sensor_type;location;lat;lon;timestamp;pressure;altitude;pressure_sealevel;temperature;humidity
54439;BME280;40347;53.848;27.498;2023-01-28T00:01:13;1019.9;;;2.5;63.7
54439;BME280;40347;53.848;27.498;2023-01-28T00:06:24;1020;;;2.6;63.4
54439;BME280;40347;53.848;27.498;2023-01-28T00:11:07;1020;;;2.6;63.6
54439;BME280;40347;53.848;27.498;2023-01-28T00:16:05;1020;;;2.6;63.8
54439;BME280;40347;53.848;27.498;2023-01-28T00:21:24;1020;;;2.4;63.9
54439;BME280;40347;53.848;27.498;2023-01-28T00:26:05;1020;;;2.3;64.4
54439;BME280;40347;53.848;27.498;2023-01-28T00:31:15;1020;;;2.3;64.6
54439;BME280;40347;53.848;27.498;2023-01-28T00:36:05;1020;;;2.4;64.7
54439;BME280;40347;53.848;27.498;2023-01-28T00:41:16;1020;;;2.6;64.7
54439;BME280;40347;53.848;27.498;2023-01-28T00:46:05;1020;;;2.6;64.2
54439;BME280;40347;53.848;27.498;2023-01-28T00:51:05;1020.1;;;2.5;63.9
54439;BME280;40347;53.848;27.498;2023-01-28T00:56:06;1020.1;;;2.5;64.2
54439;BME280;40347;53.848;27.498;2023-01-28T01:01:16;1020.1;;;2.6;64.4
54439;BME280;40347;53.848;27.498;2023-01-28T01:06:24;1020.1;;;2.7;64.3
54439;BME280;40347;53.848;27.498;2023-01-28T01:11:05;1020.1;;;2.7;63.9
54439;BME280;40347;53.848;27.498;2023-01-28T01:16:25;1020.1;;;2.7;64.1
54439;BME280;40347;53.848;27.498;2023-01-28T01:21:15;1020.2;;;2.6;64.2
54439;BME280;40347;53.848;27.498;2023-01-28T01:26:05;1020.2;;;2.8;64.2
54439;BME280;40347;53.848;27.498;2023-01-28T01:31:06;1020.2;;;2.7;64.1
54439;BME280;40347;53.848;27.498;2023-01-28T01:36:05;1020.1;;;2.7;64.2
54439;BME280;40347;53.848;27.498;2023-01-28T01:41:20;1020.1;;;2.7;64.2
54439;BME280;40347;53.848;27.498;2023-01-28T01:46:15;1020.1;;;2.6;64.3
54439;BME280;40347;53.848;27.498;2023-01-28T01:51:05;1020.1;;;2.7;64.5
54439;BME280;40347;53.848;27.498;2023-01-28T01:56:18;1020.1;;;2.7;64.5
54439;BME280;40347;53.848;27.498;2023-01-28T02:01:05;1020.1;;;2.8;64.7
54439;BME280;40347;53.848;27.498;2023-01-28T02:06:14;1020.1;;;2.7;64.7
54439;BME280;40347;53.848;27.498;2023-01-28T02:11:25;1020.1;;;2.6;64.7
54439;BME280;40347;53.848;27.498;2023-01-28T02:16:05;1020.2;;;2.7;64.7
54439;BME280;40347;53.848;27.498;2023-01-28T02:21:43;1020.1;;;2.6;64.4
54439;BME280;40347;53.848;27.498;2023-01-28T02:26:09;1020.1;;;2.5;64.3
54439;BME280;40347;53.848;27.498;2023-01-28T02:31:10;1020.1;;;2.3;64.7
54439;BME280;40347;53.848;27.498;2023-01-28T02:36:07;1020.1;;;2.2;64.9
54439;BME280;40347;53.848;27.498;2023-01-28T02:41:05;1020.2;;;2.1;64.9
54439;BME280;40347;53.848;27.498;2023-01-28T02:46:11;1020.2;;;2.1;65.2
54439;BME280;40347;53.848;27.498;2023-01-28T02:51:08;1020.1;;;2.2;65.2
54439;BME280;40347;53.848;27.498;2023-01-28T02:56:06;1020.1;;;2.2;65
54439;BME280;40347;53.848;27.498;2023-01-28T03:01:17;1020.1;;;2.3;64.8
54439;BME280;40347;53.848;27.498;2023-01-28T03:06:06;1020.1;;;2.3;64.8
54439;BME280;40347;53.848;27.498;2023-01-28T03:11:04;1020.1;;;2.3;64.6
54439;BME280;40347;53.848;27.498;2023-01-28T03:16:14;1020;;;2.4;64.3
54439;BME280;40347;53.848;27.498;2023-01-28T03:21:05;1020;;;2.4;64.3
54439;BME280;40347;53.848;27.498;2023-01-28T03:26:37;1020.1;;;2.3;64.2
54439;BME280;40347;53.848;27.498;2023-01-28T03:31:13;1020;;;2.3;64.4
54439;BME280;40347;53.848;27.498;2023-01-28T03:36:05;1020.1;;;2.2;64.5
54439;BME280;40347;53.848;27.498;2023-01-28T03:41:18;1020.1;;;2.2;64.6
54439;BME280;40347;53.848;27.498;2023-01-28T03:46:16;1020.1;;;2.2;64.6
54439;BME280;40347;53.848;27.498;2023-01-28T03:51:04;1020.1;;;2.2;64.7
54439;BME280;40347;53.848;27.498;2023-01-28T03:56:05;1020.1;;;2.1;64.4
54439;BME280;40347;53.848;27.498;2023-01-28T04:01:04;1020.1;;;2.1;64.5
54439;BME280;40347;53.848;27.498;2023-01-28T04:06:23;1020.2;;;2.1;64.6
54439;BME280;40347;53.848;27.498;2023-01-28T04:11:14;1020.2;;;2.2;64.7
54439;BME280;40347;53.848;27.498;2023-01-28T04:16:05;1020.1;;;2.2;64.6
54439;BME280;40347;53.848;27.498;2023-01-28T04:21:04;1020.2;;;2.2;64.5
54439;BME280;40347;53.848;27.498;2023-01-28T04:26:27;1020.3;;;2.2;64.4
54439;BME280;40347;53.848;27.498;2023-01-28T04:31:05;1020.4;;;2.3;64.4
54439;BME280;40347;53.848;27.498;2023-01-28T04:36:15;1020.3;;;2.3;64.3
54439;BME280;40347;53.848;27.498;2023-01-28T04:41:04;1020.3;;;2.3;64.2
54439;BME280;40347;53.848;27.498;2023-01-28T04:46:14;1020.2;;;2.2;64
54439;BME280;40347;53.848;27.498;2023-01-28T04:51:17;1020.2;;;2.2;64
54439;BME280;40347;53.848;27.498;2023-01-28T04:56:05;1020.2;;;2.2;63.9
54439;BME280;40347;53.848;27.498;2023-01-28T05:01:04;1020.3;;;2;63.3
54439;BME280;40347;53.848;27.498;2023-01-28T05:06:24;1020.3;;;1.8;63.4
54439;BME280;40347;53.848;27.498;2023-01-28T05:11:05;1020.3;;;1.6;63.9
54439;BME280;40347;53.848;27.498;2023-01-28T05:16:24;1020.4;;;1.6;64.2
54439;BME280;40347;53.848;27.498;2023-01-28T05:21:04;1020.4;;;1.6;64.2
54439;BME280;40347;53.848;27.498;2023-01-28T05:26:26;1020.4;;;1.7;64
54439;BME280;40347;53.848;27.498;2023-01-28T05:31:12;1020.3;;;1.8;63.9
54439;BME280;40347;53.848;27.498;2023-01-28T05:36:14;1020.3;;;1.8;63.8
54439;BME280;40347;53.848;27.498;2023-01-28T05:41:24;1020.3;;;1.9;63.6
54439;BME280;40347;53.848;27.498;2023-01-28T05:46:14;1020.4;;;1.8;63.3
54439;BME280;40347;53.848;27.498;2023-01-28T05:51:14;1020.5;;;1.9;63.7
54439;BME280;40347;53.848;27.498;2023-01-28T05:56:14;1020.5;;;2;63.5
54439;BME280;40347;53.848;27.498;2023-01-28T06:01:04;1020.5;;;2;63.3
54439;BME280;40347;53.848;27.498;2023-01-28T06:06:14;1020.5;;;2;63.5
54439;BME280;40347;53.848;27.498;2023-01-28T06:11:16;1020.5;;;1.9;63.6
54439;BME280;40347;53.848;27.498;2023-01-28T06:16:05;1020.5;;;1.8;63.7
54439;BME280;40347;53.848;27.498;2023-01-28T06:21:05;1020.6;;;2;63.8
54439;BME280;40347;53.848;27.498;2023-01-28T06:26:04;1020.5;;;2.1;63.7
54439;BME280;40347;53.848;27.498;2023-01-28T06:31:26;1020.6;;;2.1;63.3
54439;BME280;40347;53.848;27.498;2023-01-28T06:36:05;1020.6;;;2;63.3
54439;BME280;40347;53.848;27.498;2023-01-28T06:41:05;1020.6;;;2.1;63.5
54439;BME280;40347;53.848;27.498;2023-01-28T06:46:24;1020.6;;;2.2;63.3
54439;BME280;40347;53.848;27.498;2023-01-28T06:51:14;1020.6;;;2.3;63.1
54439;BME280;40347;53.848;27.498;2023-01-28T06:56:26;1020.6;;;2.3;63
54439;BME280;40347;53.848;27.498;2023-01-28T07:01:04;1020.6;;;2.4;62.7
54439;BME280;40347;53.848;27.498;2023-01-28T07:06:24;1020.6;;;2.3;62.7
54439;BME280;40347;53.848;27.498;2023-01-28T07:11:15;1020.6;;;2.3;62.7
54439;BME280;40347;53.848;27.498;2023-01-28T07:16:05;1020.6;;;2.3;63
54439;BME280;40347;53.848;27.498;2023-01-28T07:21:04;1020.6;;;2.4;63
54439;BME280;40347;53.848;27.498;2023-01-28T07:26:05;1020.6;;;2.4;63
54439;BME280;40347;53.848;27.498;2023-01-28T07:31:04;1020.6;;;2.5;62.9
54439;BME280;40347;53.848;27.498;2023-01-28T07:36:12;1020.6;;;2.7;62.7
54439;BME280;40347;53.848;27.498;2023-01-28T07:41:14;1020.5;;;2.7;62.3
54439;BME280;40347;53.848;27.498;2023-01-28T07:46:24;1020.5;;;2.7;62
54439;BME280;40347;53.848;27.498;2023-01-28T07:51:14;1020.5;;;2.7;62.3
54439;BME280;40347;53.848;27.498;2023-01-28T07:56:05;1020.5;;;2.9;62.2
54439;BME280;40347;53.848;27.498;2023-01-28T08:01:14;1020.5;;;3.1;62
54439;BME280;40347;53.848;27.498;2023-01-28T08:06:05;1020.5;;;3.2;61.7
54439;BME280;40347;53.848;27.498;2023-01-28T08:11:25;1020.5;;;3.2;61.3
54439;BME280;40347;53.848;27.498;2023-01-28T08:16:25;1020.5;;;3.3;61.2
54439;BME280;40347;53.848;27.498;2023-01-28T08:21:24;1020.5;;;3.3;61
54439;BME280;40347;53.848;27.498;2023-01-28T08:26:05;1020.5;;;3.3;60.9
54439;BME280;40347;53.848;27.498;2023-01-28T08:31:23;1020.4;;;3.4;60.3
54439;BME280;40347;53.848;27.498;2023-01-28T08:36:23;1020.4;;;3.4;60.4
54439;BME280;40347;53.848;27.498;2023-01-28T08:41:04;1020.4;;;3.4;60.5
54439;BME280;40347;53.848;27.498;2023-01-28T08:46:15;1020.4;;;3.6;60.7
54439;BME280;40347;53.848;27.498;2023-01-28T08:51:14;1020.4;;;3.7;60.3
54439;BME280;40347;53.848;27.498;2023-01-28T08:56:36;1020.4;;;3.8;60.2
54439;BME280;40347;53.848;27.498;2023-01-28T09:01:37;1020.4;;;3.9;59.9
54439;BME280;40347;53.848;27.498;2023-01-28T09:06:15;1020.4;;;4.1;59.6
54439;BME280;40347;53.848;27.498;2023-01-28T09:11:04;1020.4;;;4.2;59.6
54439;BME280;40347;53.848;27.498;2023-01-28T09:16:26;1020.4;;;4.3;58.9
54439;BME280;40347;53.848;27.498;2023-01-28T09:21:14;1020.4;;;4.3;58.9
54439;BME280;40347;53.848;27.498;2023-01-28T09:26:15;1020.4;;;4.4;58.4
54439;BME280;40347;53.848;27.498;2023-01-28T09:31:23;1020.3;;;4.4;57.5
54439;BME280;40347;53.848;27.498;2023-01-28T09:36:14;1020.4;;;4.4;58.3
54439;BME280;40347;53.848;27.498;2023-01-28T09:41:23;1020.3;;;4.4;58.5
54439;BME280;40347;53.848;27.498;2023-01-28T09:46:05;1020.3;;;4.5;58.4
54439;BME280;40347;53.848;27.498;2023-01-28T09:51:27;1020.2;;;4.6;58
54439;BME280;40347;53.848;27.498;2023-01-28T09:56:05;1020.2;;;4.8;57.6
54439;BME280;40347;53.848;27.498;2023-01-28T10:01:20;1020.1;;;4.7;57.8
54439;BME280;40347;53.848;27.498;2023-01-28T10:06:18;1020;;;4.6;57.6
54439;BME280;40347;53.848;27.498;2023-01-28T10:11:15;1020;;;4.4;57.5
54439;BME280;40347;53.848;27.498;2023-01-28T10:16:08;1020;;;4.5;58.2
54439;BME280;40347;53.848;27.498;2023-01-28T10:21:15;1020;;;4.5;57.9
54439;BME280;40347;53.848;27.498;2023-01-28T10:26:08;1020;;;4.5;57.9
54439;BME280;40347;53.848;27.498;2023-01-28T10:31:15;1019.9;;;4.5;57.7
54439;BME280;40347;53.848;27.498;2023-01-28T10:36:35;1019.9;;;4.4;57.7
54439;BME280;40347;53.848;27.498;2023-01-28T10:41:05;1019.9;;;4.5;57.4
54439;BME280;40347;53.848;27.498;2023-01-28T10:46:15;1019.8;;;4.6;57.3
54439;BME280;40347;53.848;27.498;2023-01-28T10:51:05;1019.8;;;4.7;56.8
54439;BME280;40347;53.848;27.498;2023-01-28T10:56:25;1019.7;;;4.7;56.7
54439;BME280;40347;53.848;27.498;2023-01-28T11:01:06;1019.7;;;4.8;56.4
54439;BME280;40347;53.848;27.498;2023-01-28T11:06:05;1019.7;;;4.8;56.4
54439;BME280;40347;53.848;27.498;2023-01-28T11:11:14;1019.7;;;4.8;56.2
54439;BME280;40347;53.848;27.498;2023-01-28T11:16:25;1019.7;;;4.8;56.1
54439;BME280;40347;53.848;27.498;2023-01-28T11:21:27;1019.6;;;4.7;56.4
54439;BME280;40347;53.848;27.498;2023-01-28T11:26:27;1019.6;;;4.7;56.2
54439;BME280;40347;53.848;27.498;2023-01-28T11:31:05;1019.6;;;4.6;56
54439;BME280;40347;53.848;27.498;2023-01-28T11:36:25;1019.5;;;4.6;55.9
54439;BME280;40347;53.848;27.498;2023-01-28T11:41:05;1019.5;;;4.6;56.1
54439;BME280;40347;53.848;27.498;2023-01-28T11:46:08;1019.6;;;4.5;56.4
54439;BME280;40347;53.848;27.498;2023-01-28T11:51:27;1019.5;;;4.5;56
54439;BME280;40347;53.848;27.498;2023-01-28T11:56:08;1019.5;;;4.5;56.2
54439;BME280;40347;53.848;27.498;2023-01-28T12:01:23;1019.4;;;4.4;56.2
54439;BME280;40347;53.848;27.498;2023-01-28T12:06:11;1019.4;;;4.3;56.2
54439;BME280;40347;53.848;27.498;2023-01-28T12:11:25;1019.3;;;4.3;56.4
54439;BME280;40347;53.848;27.498;2023-01-28T12:16:17;1019.2;;;4.2;56.6
54439;BME280;40347;53.848;27.498;2023-01-28T12:21:14;1019.2;;;4.1;56.7
54439;BME280;40347;53.848;27.498;2023-01-28T12:26:18;1019.3;;;4.1;56.7
54439;BME280;40347;53.848;27.498;2023-01-28T12:31:10;1019.3;;;3.9;56.5
54439;BME280;40347;53.848;27.498;2023-01-28T12:36:07;1019.3;;;3.9;56.6
54439;BME280;40347;53.848;27.498;2023-01-28T12:41:15;1019.3;;;4.1;56.7
54439;BME280;40347;53.848;27.498;2023-01-28T12:46:17;1019.3;;;4.1;56.7
54439;BME280;40347;53.848;27.498;2023-01-28T12:51:06;1019.2;;;4;56.8
54439;BME280;40347;53.848;27.498;2023-01-28T12:56:06;1019.2;;;4;56.8
54439;BME280;40347;53.848;27.498;2023-01-28T13:01:06;1019.2;;;4;56.7
54439;BME280;40347;53.848;27.498;2023-01-28T13:06:13;1019.2;;;4.1;56.6
54439;BME280;40347;53.848;27.498;2023-01-28T13:11:05;1019.2;;;4.2;56.3
54439;BME280;40347;53.848;27.498;2023-01-28T13:16:23;1019.2;;;4.3;56.5
54439;BME280;40347;53.848;27.498;2023-01-28T13:21:05;1019.2;;;4.3;56.5
54439;BME280;40347;53.848;27.498;2023-01-28T13:26:09;1019.1;;;4.1;56.3
54439;BME280;40347;53.848;27.498;2023-01-28T13:31:05;1019.1;;;3.9;56.8
54439;BME280;40347;53.848;27.498;2023-01-28T13:36:20;1019.1;;;3.8;57.1
54439;BME280;40347;53.848;27.498;2023-01-28T13:41:05;1019;;;3.9;57.1
54439;BME280;40347;53.848;27.498;2023-01-28T13:46:25;1019;;;3.7;57.2
54439;BME280;40347;53.848;27.498;2023-01-28T13:51:17;1019;;;3.7;57.4
54439;BME280;40347;53.848;27.498;2023-01-28T13:56:27;1018.9;;;3.7;57.4
54439;BME280;40347;53.848;27.498;2023-01-28T14:01:11;1018.9;;;3.7;57.4
54439;BME280;40347;53.848;27.498;2023-01-28T14:06:09;1018.9;;;3.6;57.5
54439;BME280;40347;53.848;27.498;2023-01-28T14:11:20;1018.8;;;3.5;57.5
54439;BME280;40347;53.848;27.498;2023-01-28T14:16:39;1018.8;;;3.4;57.7
54439;BME280;40347;53.848;27.498;2023-01-28T14:21:25;1018.8;;;3.5;57.8
54439;BME280;40347;53.848;27.498;2023-01-28T14:26:17;1018.8;;;3.5;57.8
54439;BME280;40347;53.848;27.498;2023-01-28T14:31:24;1018.8;;;3.5;57.7
54439;BME280;40347;53.848;27.498;2023-01-28T14:36:15;1018.7;;;3.3;57.4
54439;BME280;40347;53.848;27.498;2023-01-28T14:41:19;1018.7;;;3.1;58.1
54439;BME280;40347;53.848;27.498;2023-01-28T14:46:29;1018.7;;;3.1;58.5
54439;BME280;40347;53.848;27.498;2023-01-28T14:51:10;1018.7;;;3;58.5
54439;BME280;40347;53.848;27.498;2023-01-28T14:56:07;1018.6;;;3;58.6
54439;BME280;40347;53.848;27.498;2023-01-28T15:01:16;1018.6;;;3.1;58.7
54439;BME280;40347;53.848;27.498;2023-01-28T15:06:05;1018.6;;;3.1;58.7
54439;BME280;40347;53.848;27.498;2023-01-28T15:11:15;1018.7;;;3.1;58.5
54439;BME280;40347;53.848;27.498;2023-01-28T15:16:25;1018.6;;;3.1;58.6
54439;BME280;40347;53.848;27.498;2023-01-28T15:21:17;1018.5;;;3.1;58.9
54439;BME280;40347;53.848;27.498;2023-01-28T15:26:05;1018.5;;;3.2;58.9
54439;BME280;40347;53.848;27.498;2023-01-28T15:31:18;1018.5;;;3.2;58.8
54439;BME280;40347;53.848;27.498;2023-01-28T15:36:20;1018.5;;;3;58.2
54439;BME280;40347;53.848;27.498;2023-01-28T15:41:15;1018.5;;;2.8;58.6
54439;BME280;40347;53.848;27.498;2023-01-28T15:46:27;1018.5;;;2.8;58.5
54439;BME280;40347;53.848;27.498;2023-01-28T15:51:05;1018.5;;;2.8;58.7
54439;BME280;40347;53.848;27.498;2023-01-28T15:56:15;1018.5;;;2.9;58.6
54439;BME280;40347;53.848;27.498;2023-01-28T16:01:25;1018.5;;;3.1;58.4
54439;BME280;40347;53.848;27.498;2023-01-28T16:06:15;1018.5;;;3.1;58.1
54439;BME280;40347;53.848;27.498;2023-01-28T16:11:19;1018.5;;;3.1;58.1
54439;BME280;40347;53.848;27.498;2023-01-28T16:16:15;1018.5;;;3.1;58.1
54439;BME280;40347;53.848;27.498;2023-01-28T16:21:18;1018.5;;;3;57.6
54439;BME280;40347;53.848;27.498;2023-01-28T16:26:23;1018.5;;;2.8;57.8
54439;BME280;40347;53.848;27.498;2023-01-28T16:31:05;1018.5;;;2.8;58.1
54439;BME280;40347;53.848;27.498;2023-01-28T16:36:07;1018.4;;;2.9;58.2
54439;BME280;40347;53.848;27.498;2023-01-28T16:41:09;1018.4;;;3;58.1
54439;BME280;40347;53.848;27.498;2023-01-28T16:46:07;1018.4;;;3;58.2
54439;BME280;40347;53.848;27.498;2023-01-28T16:51:05;1018.4;;;3;58.6
54439;BME280;40347;53.848;27.498;2023-01-28T16:56:51;1018.4;;;2.9;58.5
54439;BME280;40347;53.848;27.498;2023-01-28T17:01:13;1018.5;;;3;58.7
54439;BME280;40347;53.848;27.498;2023-01-28T17:06:27;1018.4;;;3;58.8
54439;BME280;40347;53.848;27.498;2023-01-28T17:11:17;1018.5;;;2.9;58.8
54439;BME280;40347;53.848;27.498;2023-01-28T17:16:17;1018.5;;;3;58.8
54439;BME280;40347;53.848;27.498;2023-01-28T17:21:05;1018.5;;;3.1;58.8
54439;BME280;40347;53.848;27.498;2023-01-28T17:26:15;1018.5;;;3.1;58.7
54439;BME280;40347;53.848;27.498;2023-01-28T17:31:05;1018.5;;;3.1;59
54439;BME280;40347;53.848;27.498;2023-01-28T17:36:27;1018.5;;;3.2;59.2
54439;BME280;40347;53.848;27.498;2023-01-28T17:41:05;1018.5;;;3.1;59.2
54439;BME280;40347;53.848;27.498;2023-01-28T17:46:15;1018.5;;;3;59.2
54439;BME280;40347;53.848;27.498;2023-01-28T17:51:17;1018.5;;;3;59.2
54439;BME280;40347;53.848;27.498;2023-01-28T17:56:15;1018.5;;;3;59.2
54439;BME280;40347;53.848;27.498;2023-01-28T18:01:27;1018.5;;;3;59.4
54439;BME280;40347;53.848;27.498;2023-01-28T18:06:28;1018.3;;;3;59.4
54439;BME280;40347;53.848;27.498;2023-01-28T18:11:09;1018.2;;;2.9;59.3
54439;BME280;40347;53.848;27.498;2023-01-28T18:16:06;1018.3;;;2.9;59.3
54439;BME280;40347;53.848;27.498;2023-01-28T18:21:05;1018.3;;;2.9;59.5
54439;BME280;40347;53.848;27.498;2023-01-28T18:26:15;1018.4;;;2.8;59.5
54439;BME280;40347;53.848;27.498;2023-01-28T18:31:05;1018.4;;;2.9;59.5
54439;BME280;40347;53.848;27.498;2023-01-28T18:36:05;1018.5;;;2.8;59.5
54439;BME280;40347;53.848;27.498;2023-01-28T18:41:15;1018.5;;;2.8;59.6
54439;BME280;40347;53.848;27.498;2023-01-28T18:46:15;1018.5;;;2.8;59.7
54439;BME280;40347;53.848;27.498;2023-01-28T18:51:05;1018.6;;;2.8;59.8
54439;BME280;40347;53.848;27.498;2023-01-28T18:56:05;1018.6;;;2.7;59.9
54439;BME280;40347;53.848;27.498;2023-01-28T19:01:15;1018.5;;;2.6;60.1
54439;BME280;40347;53.848;27.498;2023-01-28T19:06:05;1018.4;;;2.6;60.1
54439;BME280;40347;53.848;27.498;2023-01-28T19:11:15;1018.4;;;2.6;60.3
54439;BME280;40347;53.848;27.498;2023-01-28T19:16:17;1018.4;;;2.6;60.4
54439;BME280;40347;53.848;27.498;2023-01-28T19:21:05;1018.4;;;2.6;60.5
54439;BME280;40347;53.848;27.498;2023-01-28T19:26:28;1018.4;;;2.5;60.6
54439;BME280;40347;53.848;27.498;2023-01-28T19:31:05;1018.4;;;2.5;60.7
54439;BME280;40347;53.848;27.498;2023-01-28T19:36:13;1018.3;;;2.4;60.8
54439;BME280;40347;53.848;27.498;2023-01-28T19:41:17;1018.4;;;2.5;61
54439;BME280;40347;53.848;27.498;2023-01-28T19:46:05;1018.4;;;2.5;61
54439;BME280;40347;53.848;27.498;2023-01-28T19:51:28;1018.3;;;2.5;60.9
54439;BME280;40347;53.848;27.498;2023-01-28T19:56:25;1018.3;;;2.5;61
54439;BME280;40347;53.848;27.498;2023-01-28T20:01:16;1018.2;;;2.4;61
54439;BME280;40347;53.848;27.498;2023-01-28T20:06:06;1018.3;;;2.5;61.1
54439;BME280;40347;53.848;27.498;2023-01-28T20:11:21;1018.3;;;2.5;61.1
54439;BME280;40347;53.848;27.498;2023-01-28T20:16:05;1018.2;;;2.6;61
54439;BME280;40347;53.848;27.498;2023-01-28T20:21:15;1018.2;;;2.6;60.9
54439;BME280;40347;53.848;27.498;2023-01-28T20:26:17;1018.2;;;2.5;60.9
54439;BME280;40347;53.848;27.498;2023-01-28T20:31:33;1018.3;;;2.4;61
54439;BME280;40347;53.848;27.498;2023-01-28T20:36:17;1018.2;;;2.5;61.1
54439;BME280;40347;53.848;27.498;2023-01-28T20:41:05;1018.1;;;2.6;61.1
54439;BME280;40347;53.848;27.498;2023-01-28T20:46:05;1018.1;;;2.5;61.2
54439;BME280;40347;53.848;27.498;2023-01-28T20:51:05;1018.1;;;2.6;61.1
54439;BME280;40347;53.848;27.498;2023-01-28T20:56:29;1018.1;;;2.6;61.1
54439;BME280;40347;53.848;27.498;2023-01-28T21:01:14;1018.1;;;2.5;61.2
54439;BME280;40347;53.848;27.498;2023-01-28T21:06:05;1018.1;;;2.5;61.5
54439;BME280;40347;53.848;27.498;2023-01-28T21:11:17;1018.1;;;2.4;61.8
54439;BME280;40347;53.848;27.498;2023-01-28T21:16:15;1018.1;;;2.3;62.1
54439;BME280;40347;53.848;27.498;2023-01-28T21:21:05;1018.1;;;2.2;62.4
54439;BME280;40347;53.848;27.498;2023-01-28T21:26:15;1018.1;;;2.2;62.8
54439;BME280;40347;53.848;27.498;2023-01-28T21:31:15;1018.1;;;2.2;62.9
54439;BME280;40347;53.848;27.498;2023-01-28T21:36:15;1018.1;;;2.1;63.1
54439;BME280;40347;53.848;27.498;2023-01-28T21:41:35;1018;;;2.1;63.4
54439;BME280;40347;53.848;27.498;2023-01-28T21:46:15;1017.9;;;2.1;63.8
54439;BME280;40347;53.848;27.498;2023-01-28T21:51:29;1017.9;;;2.2;64
54439;BME280;40347;53.848;27.498;2023-01-28T21:56:17;1017.9;;;2.3;64.1
54439;BME280;40347;53.848;27.498;2023-01-28T22:01:13;1017.8;;;2.3;63.9
54439;BME280;40347;53.848;27.498;2023-01-28T22:06:15;1017.8;;;2.3;64
54439;BME280;40347;53.848;27.498;2023-01-28T22:11:17;1017.8;;;2.2;64.2
54439;BME280;40347;53.848;27.498;2023-01-28T22:16:27;1017.7;;;2.2;64.3
54439;BME280;40347;53.848;27.498;2023-01-28T22:21:05;1017.7;;;2.3;64.3
54439;BME280;40347;53.848;27.498;2023-01-28T22:26:27;1017.6;;;2.3;64.5
54439;BME280;40347;53.848;27.498;2023-01-28T22:31:05;1017.6;;;2.3;64.5
54439;BME280;40347;53.848;27.498;2023-01-28T22:36:15;1017.6;;;2.2;64.5
54439;BME280;40347;53.848;27.498;2023-01-28T22:41:05;1017.6;;;2.3;64.4
54439;BME280;40347;53.848;27.498;2023-01-28T22:46:15;1017.5;;;2.2;64.3
54439;BME280;40347;53.848;27.498;2023-01-28T22:51:17;1017.4;;;2.3;64.3
54439;BME280;40347;53.848;27.498;2023-01-28T22:56:05;1017.4;;;2.3;64.3
54439;BME280;40347;53.848;27.498;2023-01-28T23:01:17;1017.3;;;2.3;64.2
54439;BME280;40347;53.848;27.498;2023-01-28T23:06:05;1017.2;;;2.2;64.2
54439;BME280;40347;53.848;27.498;2023-01-28T23:11:15;1017.2;;;2.3;64.3
54439;BME280;40347;53.848;27.498;2023-01-28T23:16:06;1017.1;;;2.4;64.2
54439;BME280;40347;53.848;27.498;2023-01-28T23:21:15;1017.2;;;2.5;64
54439;BME280;40347;53.848;27.498;2023-01-28T23:26:15;1017.1;;;2.5;63.8
54439;BME280;40347;53.848;27.498;2023-01-28T23:31:05;1017.1;;;2.4;63.7
54439;BME280;40347;53.848;27.498;2023-01-28T23:36:05;1016.9;;;2.4;63.4
54439;BME280;40347;53.848;27.498;2023-01-28T23:41:05;1016.9;;;2.4;62.9
54439;BME280;40347;53.848;27.498;2023-01-28T23:46:05;1016.9;;;2.4;62.1
54439;BME280;40347;53.848;27.498;2023-01-28T23:51:15;1016.9;;;2.4;61.2
54439;BME280;40347;53.848;27.498;2023-01-28T23:56:05;1016.9;;;2.2;59.3
